createdAt,value
2019-05-20T00:00:33.018Z,96314.98
2019-05-20T00:03:01.714Z,96314.98
2019-05-20T00:05:30.501Z,96325.39
2019-05-20T00:07:59.282Z,96328.61
2019-05-20T00:10:27.974Z,96336.80
2019-05-20T00:12:56.548Z,96340.61
2019-05-20T00:15:25.286Z,96345.81
2019-05-20T00:17:53.947Z,96350.84
2019-05-20T00:20:22.801Z,96346.55
2019-05-20T00:22:51.503Z,96344.79
2019-05-20T00:25:20.217Z,96344.64
2019-05-20T00:27:48.937Z,96342.53
2019-05-20T00:30:18.195Z,96351.02
2019-05-20T00:32:46.848Z,96357.95
2019-05-20T00:35:15.564Z,96350.00
2019-05-20T00:37:44.348Z,96357.44
2019-05-20T00:40:13.423Z,96352.55
2019-05-20T00:42:42.157Z,96351.91
2019-05-20T00:45:11.284Z,96357.56
2019-05-20T00:47:39.924Z,96360.80
2019-05-20T00:50:08.878Z,96362.89
2019-05-20T00:52:37.529Z,96363.02
2019-05-20T00:55:10.616Z,96361.12
2019-05-20T00:57:39.320Z,96360.70
2019-05-20T01:00:09.074Z,96357.21
2019-05-20T01:02:37.804Z,96366.23
2019-05-20T01:05:06.611Z,96380.82
2019-05-20T01:07:35.246Z,96393.91
2019-05-20T01:12:32.013Z,96396.27
2019-05-20T01:15:00.665Z,96401.02
2019-05-20T01:17:29.371Z,96400.09
2019-05-20T01:19:58.391Z,96385.05
2019-05-20T01:22:27.092Z,96385.05
2019-05-20T01:24:55.814Z,96386.54
2019-05-20T01:27:24.472Z,96383.33
2019-05-20T01:29:53.107Z,96392.43
2019-05-20T01:32:21.800Z,96389.87
2019-05-20T01:34:50.533Z,96379.14
2019-05-20T01:37:19.282Z,96377.73
2019-05-20T01:39:48.173Z,96381.77
2019-05-20T01:42:16.842Z,96376.88
2019-05-20T01:44:45.561Z,96371.53
2019-05-20T01:47:14.238Z,96379.42
2019-05-20T01:49:42.929Z,96378.84
2019-05-20T01:52:11.679Z,96369.24
2019-05-20T01:54:40.365Z,96382.38
2019-05-20T01:57:09.085Z,96375.22
2019-05-20T01:59:37.671Z,96379.71
2019-05-20T02:02:06.462Z,96386.86
2019-05-20T02:04:35.106Z,96391.98
2019-05-20T02:07:03.837Z,96388.97
2019-05-20T02:09:32.735Z,96382.55
2019-05-20T02:12:01.461Z,96376.62
2019-05-20T02:14:31.757Z,96376.62
2019-05-20T02:17:02.698Z,96384.66
2019-05-20T02:19:31.039Z,96392.59
2019-05-20T02:21:59.655Z,96400.38
2019-05-20T02:24:28.266Z,96401.42
2019-05-20T02:26:56.915Z,96404.14
2019-05-20T02:29:25.653Z,96405.05
2019-05-20T02:31:54.396Z,96411.05
2019-05-20T02:34:23.071Z,96404.72
2019-05-20T02:36:51.698Z,96410.55
2019-05-20T02:39:20.805Z,96413.53
2019-05-20T02:41:49.425Z,96402.02
2019-05-20T02:44:18.134Z,96414.91
2019-05-20T02:46:46.912Z,96412.63
2019-05-20T02:49:15.547Z,96412.24
2019-05-20T02:51:44.204Z,96411.87
2019-05-20T02:54:12.987Z,96409.16
2019-05-20T02:56:41.704Z,96398.13
2019-05-20T02:59:10.347Z,96399.48
2019-05-20T03:01:39.053Z,96397.22
2019-05-20T03:04:12.219Z,96391.48
2019-05-20T03:06:38.134Z,96392.41
2019-05-20T03:09:06.945Z,96395.95
2019-05-20T03:11:35.517Z,96397.44
2019-05-20T03:14:04.351Z,96402.47
2019-05-20T03:16:33.120Z,96408.91
2019-05-20T03:19:01.761Z,96419.14
2019-05-20T03:21:30.350Z,96426.11
2019-05-20T03:23:59.170Z,96430.51
2019-05-20T03:26:27.893Z,96436.84
2019-05-20T03:28:56.724Z,96423.92
2019-05-20T03:31:25.661Z,96423.92
2019-05-20T03:33:54.389Z,96438.78
2019-05-20T03:36:23.044Z,96453.31
2019-05-20T03:38:51.743Z,96453.31
2019-05-20T03:41:20.573Z,96451.77
2019-05-20T03:43:49.309Z,96448.50
2019-05-20T03:46:18.076Z,96455.06
2019-05-20T03:48:46.756Z,96459.89
2019-05-20T03:51:15.423Z,96457.80
2019-05-20T03:53:44.192Z,96453.22
2019-05-20T03:56:12.923Z,96459.53
2019-05-20T03:58:41.550Z,96453.44
2019-05-20T04:01:10.383Z,96449.82
2019-05-20T04:03:39.047Z,96456.87
2019-05-20T04:06:07.754Z,96456.87
2019-05-20T04:08:36.510Z,96457.75
2019-05-20T04:11:05.421Z,96454.20
2019-05-20T04:13:35.008Z,96450.21
2019-05-20T04:16:04.047Z,96451.80
2019-05-20T04:18:32.768Z,96449.25
2019-05-20T04:21:01.493Z,96438.78
2019-05-20T04:23:30.192Z,96431.63
2019-05-20T04:25:58.905Z,96426.45
2019-05-20T04:28:27.750Z,96424.52
2019-05-20T04:30:57.426Z,96421.17
2019-05-20T04:33:26.031Z,96425.66
2019-05-20T04:35:54.739Z,96426.75
2019-05-20T04:38:23.461Z,96458.98
2019-05-20T04:40:52.134Z,96404.35
2019-05-20T04:43:20.859Z,96428.12
2019-05-20T04:45:50.582Z,96428.70
2019-05-20T04:48:19.250Z,96428.70
2019-05-20T04:50:48.043Z,96429.34
2019-05-20T04:53:16.721Z,96437.20
2019-05-20T04:55:45.456Z,96444.99
2019-05-20T04:58:14.169Z,96434.89
2019-05-20T05:00:51.244Z,96436.91
2019-05-20T05:03:20.051Z,96440.61
2019-05-20T05:05:50.512Z,96452.78
2019-05-20T05:08:20.796Z,96457.09
2019-05-20T05:10:49.879Z,96453.72
2019-05-20T05:13:18.599Z,96459.31
2019-05-20T05:15:47.369Z,96464.52
2019-05-20T05:18:16.071Z,96463.48
2019-05-20T05:20:44.791Z,96470.34
2019-05-20T05:23:13.552Z,96458.55
2019-05-20T05:25:42.423Z,96461.78
2019-05-20T05:28:11.141Z,96452.89
2019-05-20T05:30:40.787Z,96455.66
2019-05-20T05:33:09.569Z,96456.63
2019-05-20T05:35:52.374Z,96467.66
2019-05-20T05:38:08.859Z,96458.41
2019-05-20T05:40:37.607Z,96460.56
2019-05-20T05:43:06.256Z,96465.99
2019-05-20T05:45:35.239Z,96457.50
2019-05-20T05:48:04.022Z,96451.95
2019-05-20T05:50:32.782Z,96442.47
2019-05-20T05:53:01.430Z,96441.96
2019-05-20T05:55:30.137Z,96440.06
2019-05-20T05:57:58.907Z,96444.81
2019-05-20T06:00:27.638Z,96440.12
2019-05-20T06:02:56.475Z,96441.70
2019-05-20T06:05:25.208Z,96445.86
2019-05-20T06:07:54.168Z,96453.34
2019-05-20T06:10:23.530Z,96461.33
2019-05-20T06:12:52.254Z,96460.29
2019-05-20T06:15:21.077Z,96451.25
2019-05-20T06:17:49.725Z,96455.26
2019-05-20T06:20:20.023Z,96453.81
2019-05-20T06:22:48.744Z,96462.42
2019-05-20T06:25:17.785Z,96463.56
2019-05-20T06:27:46.409Z,96463.34
2019-05-20T06:30:15.742Z,96458.17
2019-05-20T06:32:44.521Z,96448.05
2019-05-20T06:35:13.506Z,96453.62
2019-05-20T06:37:44.153Z,96462.55
2019-05-20T06:40:14.923Z,96456.56
2019-05-20T06:42:43.653Z,96451.76
2019-05-20T06:45:12.605Z,96454.61
2019-05-20T06:47:41.320Z,96458.52
2019-05-20T06:50:11.384Z,96455.98
2019-05-20T06:52:42.837Z,96454.02
2019-05-20T06:55:29.068Z,96455.86
2019-05-20T06:57:58.008Z,96446.58
2019-05-20T07:00:35.311Z,96434.55
2019-05-20T07:03:04.677Z,96433.55
2019-05-20T07:05:33.653Z,96428.83
2019-05-20T07:08:02.302Z,96419.52
2019-05-20T07:10:31.511Z,96416.95
2019-05-20T07:13:00.271Z,96409.69
2019-05-20T07:15:29.006Z,96406.88
2019-05-20T07:17:57.824Z,96406.99
2019-05-20T07:20:26.540Z,96407.28
2019-05-20T07:22:56.749Z,96406.82
2019-05-20T07:25:25.670Z,96406.34
2019-05-20T07:27:54.565Z,96409.91
2019-05-20T07:30:23.661Z,96408.09
2019-05-20T07:33:10.701Z,96410.09
2019-05-20T07:35:41.014Z,96410.13
2019-05-20T07:38:15.511Z,96410.86
2019-05-20T07:40:44.122Z,96414.02
2019-05-20T07:43:13.009Z,96416.92
2019-05-20T07:45:42.387Z,96426.09
2019-05-20T07:48:11.026Z,96434.95
2019-05-20T07:50:41.384Z,96442.67
2019-05-20T07:53:11.621Z,96445.22
2019-05-20T07:55:58.341Z,96436.88
2019-05-20T07:58:33.477Z,96443.52
2019-05-20T08:01:00.176Z,96450.22
2019-05-20T08:03:30.283Z,96445.50
2019-05-20T08:05:58.965Z,96443.79
2019-05-20T08:08:27.689Z,96435.59
2019-05-20T08:10:57.956Z,96432.66
2019-05-20T08:13:26.936Z,96439.26
2019-05-20T08:15:55.641Z,96430.02
2019-05-20T08:18:24.328Z,96428.98
2019-05-20T08:20:53.028Z,96437.25
2019-05-20T08:23:21.712Z,96437.61
2019-05-20T08:25:50.369Z,96434.64
2019-05-20T08:28:19.191Z,96431.43
2019-05-20T08:30:47.942Z,96425.33
2019-05-20T08:33:16.669Z,96433.00
2019-05-20T08:35:45.366Z,96442.70
2019-05-20T08:38:14.146Z,96438.11
2019-05-20T08:40:43.027Z,96442.00
2019-05-20T08:43:11.885Z,96449.77
2019-05-20T08:45:40.570Z,96437.08
2019-05-20T08:48:10.154Z,96447.52
2019-05-20T08:50:38.836Z,96436.96
2019-05-20T08:53:07.498Z,96449.55
2019-05-20T08:55:39.185Z,96452.86
2019-05-20T08:58:07.907Z,96460.20
2019-05-20T09:00:36.667Z,96454.39
2019-05-20T09:03:05.437Z,96449.80
2019-05-20T09:05:34.093Z,96452.50
2019-05-20T09:08:04.133Z,96450.88
2019-05-20T09:10:33.083Z,96456.78
2019-05-20T09:13:01.752Z,96455.41
2019-05-20T09:15:36.524Z,96450.77
2019-05-20T09:18:05.316Z,96450.01
2019-05-20T09:20:44.955Z,96450.53
2019-05-20T09:23:13.664Z,96447.69
2019-05-20T09:25:42.382Z,96445.17
2019-05-20T09:28:11.181Z,96439.84
2019-05-20T09:30:42.447Z,96450.81
2019-05-20T09:33:11.180Z,96446.60
2019-05-20T09:35:39.947Z,96446.98
2019-05-20T09:38:21.178Z,96445.55
2019-05-20T09:40:50.124Z,96445.27
2019-05-20T09:43:18.954Z,96442.89
2019-05-20T09:46:05.283Z,96439.17
2019-05-20T09:48:18.085Z,96440.82
2019-05-20T09:50:46.738Z,96447.08
2019-05-20T09:53:15.514Z,96455.31
2019-05-20T09:55:44.165Z,96474.39
2019-05-20T09:58:12.814Z,96484.81
2019-05-20T10:00:41.646Z,96496.45
2019-05-20T10:03:10.329Z,96487.98
2019-05-20T10:05:39.879Z,96492.95
2019-05-20T10:08:08.660Z,96505.03
2019-05-20T10:10:37.401Z,96506.50
2019-05-20T10:13:06.538Z,96513.13
2019-05-20T10:15:35.674Z,96513.08
2019-05-20T10:18:04.406Z,96503.48
2019-05-20T10:20:33.192Z,96500.02
2019-05-20T10:23:01.928Z,96500.86
2019-05-20T10:25:30.701Z,96488.59
2019-05-20T10:27:59.437Z,96478.07
2019-05-20T10:30:28.175Z,96463.66
2019-05-20T10:32:56.868Z,96473.38
2019-05-20T10:35:25.539Z,96472.56
2019-05-20T10:37:54.201Z,96470.22
2019-05-20T10:40:23.052Z,96472.92
2019-05-20T10:42:51.752Z,96477.44
2019-05-20T10:45:20.576Z,96467.72
2019-05-20T10:47:49.427Z,96461.73
2019-05-20T10:50:18.443Z,96459.65
2019-05-20T10:52:47.213Z,96459.16
2019-05-20T10:55:16.305Z,96448.02
2019-05-20T10:57:45.004Z,96453.02
2019-05-20T11:00:14.037Z,96444.59
2019-05-20T11:02:42.809Z,96441.75
2019-05-20T11:05:11.621Z,96448.13
2019-05-20T11:07:40.308Z,96442.17
2019-05-20T11:10:09.249Z,96438.41
2019-05-20T11:12:38.095Z,96438.16
2019-05-20T11:15:07.542Z,96439.20
2019-05-20T11:17:36.273Z,96441.23
2019-05-20T11:20:06.764Z,96437.55
2019-05-20T11:22:37.081Z,96446.83
2019-05-20T11:25:07.165Z,96439.45
2019-05-20T11:27:35.855Z,96443.37
2019-05-20T11:30:07.444Z,96453.78
2019-05-20T11:32:36.162Z,96473.63
2019-05-20T11:35:06.701Z,96487.47
2019-05-20T11:37:35.417Z,96502.67
2019-05-20T11:40:07.094Z,96521.35
2019-05-20T11:42:35.941Z,96535.59
2019-05-20T11:45:07.069Z,96539.17
2019-05-20T11:47:35.793Z,96549.13
2019-05-20T11:50:07.458Z,96555.94
2019-05-20T11:52:36.174Z,96567.91
2019-05-20T11:55:06.032Z,96578.14
2019-05-20T11:57:34.725Z,96588.82
2019-05-20T12:00:05.260Z,96608.66
2019-05-20T12:02:33.949Z,96588.56
2019-05-20T12:05:02.675Z,96585.11
2019-05-20T12:07:31.432Z,96583.88
2019-05-20T12:10:00.322Z,96582.08
2019-05-20T12:12:29.076Z,96578.78
2019-05-20T12:14:57.729Z,96575.34
2019-05-20T12:17:26.452Z,96574.72
2019-05-20T12:19:55.442Z,96574.72
2019-05-20T12:22:24.289Z,96598.06
2019-05-20T12:24:52.988Z,96608.94
2019-05-20T12:27:21.760Z,96607.09
2019-05-20T12:29:50.480Z,96604.94
2019-05-20T12:32:19.135Z,96604.64
2019-05-20T12:34:48.105Z,96611.35
2019-05-20T12:37:16.895Z,96618.48
2019-05-20T12:39:45.757Z,96625.25
2019-05-20T12:42:14.869Z,96624.81
2019-05-20T12:44:43.698Z,96629.37
2019-05-20T12:47:12.479Z,96634.78
2019-05-20T12:49:41.371Z,96638.68
2019-05-20T12:52:10.098Z,96653.20
2019-05-20T12:54:38.734Z,96660.58
2019-05-20T12:57:07.324Z,96655.50
2019-05-20T12:59:35.932Z,96670.81
2019-05-20T13:02:04.685Z,96676.23
2019-05-20T13:04:33.447Z,96657.42
2019-05-20T13:07:06.587Z,96657.42
2019-05-20T13:09:35.475Z,96670.20
2019-05-20T13:12:04.165Z,96670.05
2019-05-20T13:14:32.809Z,96671.35
2019-05-20T13:17:01.470Z,96673.73
2019-05-20T13:19:30.326Z,96672.35
2019-05-20T13:21:59.021Z,96665.36
2019-05-20T13:24:27.669Z,96665.36
2019-05-20T13:26:56.441Z,96655.05
2019-05-20T13:29:25.174Z,96655.05
2019-05-20T13:31:55.410Z,96672.50
2019-05-20T13:34:24.110Z,96682.77
2019-05-20T13:36:54.995Z,96681.19
2019-05-20T13:39:23.720Z,96688.55
2019-05-20T13:41:55.744Z,96691.97
2019-05-20T13:44:24.426Z,96702.22
2019-05-20T13:46:53.106Z,96703.30
2019-05-20T13:49:21.869Z,96714.66
2019-05-20T13:51:50.555Z,96720.50
2019-05-20T13:54:19.348Z,96739.19
2019-05-20T13:56:48.301Z,96747.89
2019-05-20T13:59:17.114Z,96747.09
2019-05-20T14:01:45.810Z,96766.50
2019-05-20T14:04:14.507Z,96770.72
2019-05-20T14:06:43.276Z,96778.36
2019-05-20T14:09:11.937Z,96792.97
2019-05-20T14:11:40.864Z,96806.56
2019-05-20T14:14:09.426Z,96809.87
2019-05-20T14:16:38.228Z,96804.36
2019-05-20T14:19:07.036Z,96788.98
2019-05-20T14:21:36.326Z,96780.58
2019-05-20T14:24:04.992Z,96709.70
2019-05-20T14:26:33.827Z,96680.55
2019-05-20T14:29:02.549Z,96717.22
2019-05-20T14:31:31.309Z,96745.28
2019-05-20T14:34:00.012Z,96741.64
2019-05-20T14:36:39.331Z,96745.20
2019-05-20T14:38:59.059Z,96743.30
2019-05-20T14:41:27.945Z,96746.06
2019-05-20T14:43:56.693Z,96751.59
2019-05-20T14:46:25.346Z,96750.38
2019-05-20T14:48:54.267Z,96735.79
2019-05-20T14:51:22.899Z,96740.09
2019-05-20T14:53:51.598Z,96743.39
2019-05-20T14:56:20.340Z,96735.54
2019-05-20T14:58:48.908Z,96729.41
2019-05-20T15:01:17.635Z,96709.41
2019-05-20T15:03:46.396Z,96709.27
2019-05-20T15:06:15.129Z,96690.42
2019-05-20T15:08:43.899Z,96718.85
2019-05-20T15:11:12.704Z,96718.85
2019-05-20T15:13:41.363Z,96713.19
2019-05-20T15:16:10.080Z,96712.98
2019-05-20T15:18:38.847Z,96712.58
2019-05-20T15:21:07.514Z,96706.44
2019-05-20T15:23:36.230Z,96700.45
2019-05-20T15:26:04.969Z,96698.95
2019-05-20T15:28:33.686Z,96698.28
2019-05-20T15:31:02.430Z,96685.77
2019-05-20T15:33:31.051Z,96678.90
2019-05-20T15:35:59.701Z,96683.38
2019-05-20T15:38:28.371Z,96681.02
2019-05-20T15:40:57.091Z,96683.64
2019-05-20T15:43:25.781Z,96689.11
2019-05-20T15:45:54.426Z,96684.07
2019-05-20T15:48:23.837Z,96693.27
2019-05-20T15:50:52.476Z,96681.34
2019-05-20T15:53:21.051Z,96676.75
2019-05-20T15:55:51.470Z,96684.91
2019-05-20T15:58:23.547Z,96689.95
2019-05-20T16:00:51.953Z,96693.70
2019-05-20T16:03:20.718Z,96697.47
2019-05-20T16:05:49.413Z,96701.79
2019-05-20T16:08:18.171Z,96705.84
2019-05-20T16:10:46.936Z,96695.70
2019-05-20T16:13:15.725Z,96695.68
2019-05-20T16:15:44.548Z,96683.53
2019-05-20T16:18:13.272Z,96675.19
2019-05-20T16:20:41.952Z,96681.20
2019-05-20T16:23:12.046Z,96685.09
2019-05-20T16:25:40.803Z,96693.06
2019-05-20T16:28:09.422Z,96699.69
2019-05-20T16:30:38.190Z,96706.84
2019-05-20T16:33:07.062Z,96706.34
2019-05-20T16:35:35.708Z,96706.59
2019-05-20T16:38:04.426Z,96706.72
2019-05-20T16:40:35.733Z,96714.84
2019-05-20T16:43:04.449Z,96709.02
2019-05-20T16:45:33.234Z,96709.02
2019-05-20T16:48:01.997Z,96722.45
2019-05-20T16:50:32.084Z,96693.16
2019-05-20T16:53:00.727Z,96693.16
2019-05-20T16:55:29.449Z,96699.42
2019-05-20T16:57:58.215Z,96693.31
2019-05-20T17:00:31.819Z,96686.50
2019-05-20T17:03:00.082Z,96685.45
2019-05-20T17:05:36.054Z,96692.78
2019-05-20T17:08:04.834Z,96699.55
2019-05-20T17:10:33.530Z,96695.64
2019-05-20T17:13:02.261Z,96694.28
2019-05-20T17:15:31.029Z,96698.69
2019-05-20T17:17:59.729Z,96693.87
2019-05-20T17:20:28.433Z,96691.01
2019-05-20T17:22:57.211Z,96689.31
2019-05-20T17:25:25.956Z,96694.00
2019-05-20T17:27:54.742Z,96696.18
2019-05-20T17:30:23.630Z,96700.59
2019-05-20T17:32:52.372Z,96703.13
2019-05-20T17:35:21.181Z,96710.44
2019-05-20T17:37:54.953Z,96710.44
2019-05-20T17:40:22.149Z,96711.39
2019-05-20T17:42:57.797Z,96734.98
2019-05-20T17:45:26.533Z,96721.39
2019-05-20T17:47:55.183Z,96699.54
2019-05-20T17:50:23.954Z,96699.54
2019-05-20T17:52:52.633Z,96703.71
2019-05-20T17:55:21.304Z,96709.73
2019-05-20T17:57:50.218Z,96709.73
2019-05-20T18:00:20.494Z,96708.45
2019-05-20T18:02:49.275Z,96699.11
2019-05-20T18:05:26.123Z,96699.11
2019-05-20T18:07:54.866Z,96712.40
2019-05-20T18:10:26.574Z,96708.58
2019-05-20T18:12:55.250Z,96713.59
2019-05-20T18:15:35.706Z,96712.98
2019-05-20T18:18:04.526Z,96715.81
2019-05-20T18:20:33.268Z,96719.80
2019-05-20T18:23:02.052Z,96724.94
2019-05-20T18:25:36.314Z,96734.52
2019-05-20T18:28:05.278Z,96736.79
2019-05-20T18:30:37.079Z,96728.25
2019-05-20T18:33:05.735Z,96724.81
2019-05-20T18:35:40.089Z,96725.29
2019-05-20T18:38:08.771Z,96729.56
2019-05-20T18:40:37.573Z,96736.56
2019-05-20T18:43:06.445Z,96736.56
2019-05-20T18:45:35.160Z,96737.73
2019-05-20T18:48:06.132Z,96743.46
2019-05-20T18:50:34.893Z,96755.09
2019-05-20T18:53:03.605Z,96755.37
2019-05-20T18:55:35.046Z,96755.73
2019-05-20T18:58:03.758Z,96750.95
2019-05-20T19:00:36.910Z,96757.80
2019-05-20T19:03:07.284Z,96763.63
2019-05-20T19:05:36.013Z,96765.31
2019-05-20T19:08:09.043Z,96756.20
2019-05-20T19:10:42.604Z,96759.69
2019-05-20T19:13:11.356Z,96773.08
2019-05-20T19:15:45.891Z,96777.03
2019-05-20T19:18:14.752Z,96768.88
2019-05-20T19:20:43.497Z,96780.09
2019-05-20T19:23:12.165Z,96782.09
2019-05-20T19:25:43.844Z,96774.64
2019-05-20T19:28:11.253Z,96768.66
2019-05-20T19:30:39.978Z,96777.06
2019-05-20T19:33:08.752Z,96784.11
2019-05-20T19:35:37.588Z,96777.14
2019-05-20T19:38:06.244Z,96778.11
2019-05-20T19:40:35.215Z,96774.20
2019-05-20T19:43:03.897Z,96790.98
2019-05-20T19:45:32.756Z,96786.22
2019-05-20T19:48:01.413Z,96785.27
2019-05-20T19:50:30.234Z,96792.40
2019-05-20T19:52:58.959Z,96788.18
2019-05-20T19:55:27.729Z,96777.66
2019-05-20T19:57:57.950Z,96781.62
2019-05-20T20:00:26.684Z,96779.83
2019-05-20T20:03:05.534Z,96787.59
2019-05-20T20:05:36.873Z,96785.67
2019-05-20T20:08:18.402Z,96790.91
2019-05-20T20:10:47.387Z,96795.28
2019-05-20T20:13:16.140Z,96791.58
2019-05-20T20:15:44.872Z,96786.73
2019-05-20T20:18:16.349Z,96790.88
2019-05-20T20:20:45.091Z,96789.97
2019-05-20T20:23:13.762Z,96790.34
2019-05-20T20:25:42.541Z,96792.92
2019-05-20T20:28:11.270Z,96791.35
2019-05-20T20:30:39.862Z,96793.15
2019-05-20T20:33:08.583Z,96790.33
2019-05-20T20:35:38.480Z,96787.63
2019-05-20T20:38:07.349Z,96791.98
2019-05-20T20:40:36.093Z,96796.12
2019-05-20T20:43:04.875Z,96803.20
2019-05-20T20:45:33.600Z,96799.60
2019-05-20T20:48:02.261Z,96807.70
2019-05-20T20:50:31.026Z,96800.16
2019-05-20T20:52:59.735Z,96803.67
2019-05-20T20:55:28.461Z,96809.02
2019-05-20T20:57:57.055Z,96804.84
2019-05-20T21:00:25.706Z,96811.16
2019-05-20T21:02:54.499Z,96816.13
2019-05-20T21:05:23.206Z,96821.23
2019-05-20T21:07:51.976Z,96823.86
2019-05-20T21:10:20.605Z,96824.27
2019-05-20T21:12:49.414Z,96825.78
2019-05-20T21:15:18.105Z,96818.95
2019-05-20T21:17:46.890Z,96822.75
2019-05-20T21:20:15.841Z,96825.28
2019-05-20T21:22:48.935Z,96827.84
2019-05-20T21:25:17.665Z,96825.43
2019-05-20T21:27:46.407Z,96824.38
2019-05-20T21:30:15.158Z,96817.38
2019-05-20T21:32:43.822Z,96830.73
2019-05-20T21:35:12.591Z,96826.41
2019-05-20T21:37:41.305Z,96825.52
2019-05-20T21:40:10.070Z,96821.75
2019-05-20T21:42:38.729Z,96823.31
2019-05-20T21:45:08.444Z,96822.47
2019-05-20T21:47:37.112Z,96827.41
2019-05-20T21:50:07.311Z,96838.01
2019-05-20T21:52:36.072Z,96844.63
2019-05-20T21:55:06.876Z,96838.50
2019-05-20T21:57:35.607Z,96849.77
2019-05-20T22:00:08.373Z,96847.55
2019-05-20T22:02:37.143Z,96853.37
2019-05-20T22:05:06.835Z,96853.55
2019-05-20T22:07:35.656Z,96852.04
2019-05-20T22:10:06.907Z,96857.82
2019-05-20T22:12:35.575Z,96859.85
2019-05-20T22:15:06.023Z,96861.16
2019-05-20T22:17:34.737Z,96852.84
2019-05-20T22:20:04.624Z,96851.55
2019-05-20T22:22:34.982Z,96851.95
2019-05-20T22:25:03.798Z,96858.39
2019-05-20T22:27:32.442Z,96870.94
2019-05-20T22:30:01.100Z,96883.18
2019-05-20T22:32:29.907Z,96880.09
2019-05-20T22:34:58.632Z,96873.73
2019-05-20T22:37:27.288Z,96863.22
2019-05-20T22:39:56.105Z,96864.05
2019-05-20T22:42:24.672Z,96869.55
2019-05-20T22:44:53.372Z,96872.10
2019-05-20T22:47:22.024Z,96875.37
2019-05-20T22:49:50.934Z,96861.38
2019-05-20T22:52:19.625Z,96866.77
2019-05-20T22:54:48.401Z,96850.23
2019-05-20T22:57:17.107Z,96851.80
2019-05-20T22:59:45.686Z,96859.33
2019-05-20T23:02:14.377Z,96855.24
2019-05-20T23:04:43.120Z,96849.70
2019-05-20T23:07:11.771Z,96851.09
2019-05-20T23:09:40.481Z,96849.17
2019-05-20T23:12:09.129Z,96850.42
2019-05-20T23:14:37.903Z,96856.62
2019-05-20T23:17:06.660Z,96854.09
2019-05-20T23:19:35.423Z,96848.95
2019-05-20T23:22:04.410Z,96856.56
2019-05-20T23:24:33.091Z,96854.50
2019-05-20T23:27:01.732Z,96852.40
2019-05-20T23:29:30.436Z,96853.63
2019-05-20T23:31:59.115Z,96853.33
2019-05-20T23:34:27.855Z,96852.63
2019-05-20T23:36:56.500Z,96851.32
2019-05-20T23:39:25.261Z,96860.48
2019-05-20T23:41:53.915Z,96861.80
2019-05-20T23:44:22.487Z,96862.27
2019-05-20T23:46:51.188Z,96855.42
2019-05-20T23:49:19.904Z,96869.58
2019-05-20T23:51:48.552Z,96874.05
2019-05-20T23:54:17.249Z,96863.48
2019-05-20T23:56:45.943Z,96867.09
2019-05-20T23:59:14.624Z,96859.27
